• Join FlightAware (Why Join?)
  • Login
  • US Flag 
10:59PM EDT


 

Airport Tracker/Info


-or-


 

Live Flight TrackerFlight Track Log ✈ DAL2286 ✈ 16-Sep-2013 ✈ KATL - KBTV

Flight Track Log - Related Links

Times and Time Zones

All times are in EDT time to prevent confusion due to time zone crossing. See the DAL2286 flight status page for this flight to view local times or setup timezone preferences in your user account.

Time Position Orientation Groundspeed Altitude Reporting Facility
EDT Latitude Longitude Course Direction KTS MPH feet Rate Location/Type
07:41PM 33.6333 -84.4500 53° Northeast 165 190 2,100  Level Atlanta TRACON
07:42PM 33.6167 -84.5167 253° West 229 264 3,700 2,400 Climbing Atlanta TRACON
07:43PM 33.5667 -84.5833 228° Southwest 289 333 7,000 3,180 Climbing Atlanta TRACON
07:44PM 33.9357 -84.1706 54° Northeast  Level Estimated
07:44PM 33.4833 -84.5833 180° South 301 346 10,100  Level Atlanta TRACON
07:45PM 34.0352 -84.0845 48° Northeast  Level Estimated
07:45PM 33.4575 -84.4694 105° East 319 367 12,300  Level Atlanta Center
07:46PM 34.1347 -83.9981 53° Northeast  Level Estimated
07:46PM 33.5142 -84.3703 56° Northeast 318 366 14,900  Level Atlanta Center
07:47PM 33.5811 -84.2683 52° Northeast 363 418 17,200 2,100 Climbing Atlanta Center
07:48PM 33.6481 -84.1611 53° Northeast 394 453 19,100 1,740 Climbing Atlanta Center
07:49PM 33.7211 -84.0464 53° Northeast 423 487 20,700 1,620 Climbing Atlanta Center
07:50PM 33.7964 -83.9264 53° Northeast 440 506 22,400 1,560 Climbing Atlanta Center
07:51PM 33.8669 -83.8111 54° Northeast 452 520 23,900 1,620 Climbing Atlanta Center
07:52PM 33.9461 -83.6883 52° Northeast 465 535 25,700 1,500 Climbing Atlanta Center
07:53PM 34.0269 -83.5575 53° Northeast 472 543 27,000 1,200 Climbing Atlanta Center
07:54PM 34.1078 -83.4292 53° Northeast 478 550 28,100 1,200 Climbing Atlanta Center
07:55PM 34.1928 -83.2981 52° Northeast 491 565 29,400 1,440 Climbing Atlanta Center
07:56PM 34.2628 -83.1567 59° Northeast 491 565 31,000 1,440 Climbing Atlanta Center
07:57PM 34.3053 -82.9953 72° East 485 558 32,300 1,380 Climbing Atlanta Center
07:58PM 34.3497 -82.8361 71° East 493 567 33,800 1,260 Climbing Atlanta Center
07:59PM 34.3981 -82.6667 71° East 488 562 34,900 1,020 Climbing Atlanta Center
08:00PM 34.4678 -82.5497 54° Northeast 469 540 35,900 600 Climbing Atlanta Center
08:01PM 34.5644 -82.4447 42° Northeast 462 532 36,100 540 Climbing Atlanta Center
08:02PM 34.6611 -82.3367 43° Northeast 456 525 37,000 900 Climbing Atlanta Center
08:03PM 34.7578 -82.2336 41° Northeast 462 532 37,900 300 Climbing Atlanta Center
08:04PM 34.8522 -82.1278 43° Northeast 462 532 37,600 -480 Descending Atlanta Center
08:05PM 34.9528 -82.0217 41° Northeast 449 517 37,000 -300 Descending Atlanta Center
08:06PM 35.0553 -81.9253 38° Northeast 456 525 37,100  Climbing Atlanta Center
08:07PM 35.1689 -81.8536 27° Northeast 456 525 37,100  Level Atlanta Center
08:08PM 35.2867 -81.7869 25° Northeast 456 525 37,100 -60 Level Atlanta Center
08:09PM 35.3897 -81.7281 25° Northeast 456 525 37,000  Descending Atlanta Center
08:10PM 35.5053 -81.6586 26° Northeast 456 525 37,100  Climbing Atlanta Center
08:11PM 35.6231 -81.5914 25° Northeast 456 525 37,100  Level Atlanta Center
08:12PM 35.7447 -81.5236 24° Northeast 461 531 37,100  Level Atlanta Center
08:13PM 35.8703 -81.4456 27° Northeast 461 531 37,100 -60 Level Atlanta Center
08:14PM 35.9878 -81.3750 26° Northeast 461 531 37,000 -60 Descending Atlanta Center
08:15PM 36.1008 -81.3069 26° Northeast 454 522 37,000  Level Atlanta Center
08:16PM 36.2142 -81.2414 25° Northeast 449 517 37,100  Climbing Atlanta Center
08:17PM 36.3314 -81.1678 27° Northeast 459 528 37,100  Level Atlanta Center
08:18PM 36.4375 -81.0761 35° Northeast 465 535 37,100  Level Atlanta Center
08:20PM 36.6142 -80.8503 46° Northeast 480 552 37,100  Level Washington Center
08:21PM 36.6983 -80.7394 47° Northeast 458 527 37,200 480 Climbing Washington Center
08:22PM 36.7867 -80.6233 46° Northeast 452 520 38,100 720 Climbing Washington Center
08:23PM 36.8728 -80.5094 47° Northeast 452 520 38,700 480 Climbing Washington Center
08:24PM 36.9692 -80.4014 42° Northeast 452 520 39,100 180 Climbing Washington Center
08:25PM 37.0858 -80.3019 34° Northeast 453 521 39,100  Level Washington Center
08:26PM 37.1939 -80.2067 35° Northeast 464 534 39,100  Level Washington Center
08:27PM 37.3017 -80.1114 35° Northeast 470 541 39,100  Level Washington Center
08:28PM 37.4094 -80.0158 35° Northeast 470 541 39,100 -60 Level Washington Center
08:29PM 37.5086 -79.9300 34° Northeast 470 541 39,000  Descending Washington Center
08:30PM 37.6253 -79.8214 36° Northeast 480 552 39,100  Climbing Washington Center
08:31PM 37.7242 -79.7375 34° Northeast 480 552 39,000  Descending Washington Center
08:32PM 37.8339 -79.6411 35° Northeast 475 547 39,100  Climbing Washington Center
08:33PM 37.9414 -79.5414 36° Northeast 475 547 39,100  Level Washington Center
08:34PM 38.0489 -79.4469 35° Northeast 475 547 39,100  Level Washington Center
08:35PM 38.1669 -79.3394 36° Northeast 470 541 39,100  Level Washington Center
08:36PM 38.2700 -79.2414 37° Northeast 470 541 39,100  Level Washington Center
08:37PM 38.3792 -79.1436 35° Northeast 470 541 39,100  Level Washington Center
08:38PM 38.4864 -79.0453 36° Northeast 470 541 39,100  Level Washington Center
08:39PM 38.5767 -78.9539 38° Northeast 462 532 39,100  Level Washington Center
08:40PM 38.6836 -78.8550 36° Northeast 462 532 39,100  Level Washington Center
08:41PM 38.7906 -78.7558 32° Northeast 468 539 39,100  Level Washington Center
08:42PM 38.8055 -78.7588 32° Northeast  Level FlightAware Approximate
08:42PM 38.8972 -78.6564 36° Northeast 468 539 39,100  Level Washington Center
08:44PM 39.1086 -78.4592 36° Northeast 468 539 39,100  Level Washington Center
08:45PM 39.2258 -78.3486 36° Northeast 468 539 39,100  Level Washington Center
08:48PM 39.4517 -78.1361 36° Northeast 454 522 39,100  Level New York Center
08:49PM 39.5561 -78.0367 36° Northeast 464 534 39,100  Level New York Center
08:50PM 39.6581 -77.9364 37° Northeast 464 534 39,100  Level New York Center
08:51PM 39.7622 -77.8364 36° Northeast 464 534 39,100  Level New York Center
08:52PM 39.8683 -77.7361 36° Northeast 464 534 39,100  Level New York Center
08:53PM 39.9700 -77.6350 37° Northeast 464 534 39,100 -60 Level New York Center
08:54PM 40.0739 -77.5342 37° Northeast 464 534 39,000 -60 Descending New York Center
08:55PM 40.1889 -77.4175 38° Northeast 464 534 39,000  Level New York Center
08:56PM 40.2942 -77.3242 34° Northeast 459 528 39,000  Level New York Center
08:57PM 40.3867 -77.2347 36° Northeast 454 522 39,100  Climbing New York Center
08:58PM 40.4919 -77.1381 35° Northeast 454 522 39,100  Level New York Center
08:59PM 40.5994 -77.0386 35° Northeast 459 528 39,100  Level New York Center
09:00PM 40.7069 -76.9389 35° Northeast 459 528 39,100  Level New York Center
09:01PM 40.8142 -76.8389 35° Northeast 464 534 39,100  Level New York Center
09:02PM 40.9214 -76.7386 35° Northeast 470 541 39,100  Level New York Center
09:03PM 41.0286 -76.6381 35° Northeast 470 541 39,100  Level New York Center
09:04PM 41.1356 -76.5369 35° Northeast 465 535 39,100  Level New York Center
09:05PM 41.2403 -76.4383 35° Northeast 465 535 39,100  Level New York Center
09:06PM 41.3517 -76.3317 36° Northeast 474 545 39,100 -60 Level New York Center
09:07PM 41.4583 -76.2297 36° Northeast 474 545 39,000 -60 Descending New York Center
09:08PM 41.5783 -76.1147 36° Northeast 480 552 39,000  Level New York Center
09:10PM 41.8122 -75.8858 36° Northeast 473 544 39,100  Climbing Boston Center
09:11PM 41.9197 -75.7831 35° Northeast 467 537 39,100  Level Boston Center
09:12PM 42.0247 -75.6794 36° Northeast 467 537 39,100  Level Boston Center
09:13PM 42.1297 -75.5756 36° Northeast 467 537 39,100  Level Boston Center
09:14PM 42.2347 -75.4714 36° Northeast 467 537 39,100 -60 Level Boston Center
09:15PM 42.3289 -75.3806 35° Northeast 460 529 39,000 -60 Descending Boston Center
09:16PM 42.4317 -75.2728 38° Northeast 460 529 39,000  Level Boston Center
09:17PM 42.5386 -75.1678 36° Northeast 466 536 39,000  Level Boston Center
09:18PM 42.6453 -75.0625 36° Northeast 466 536 39,000  Level Boston Center
09:19PM 42.7497 -74.9567 37° Northeast 466 536 39,000  Level Boston Center
09:20PM 42.8542 -74.8503 37° Northeast 466 536 39,000 -300 Level Boston Center
09:21PM 42.9608 -74.7411 37° Northeast 466 536 38,500 -780 Descending Boston Center
09:22PM 43.0650 -74.6342 37° Northeast 466 536 37,500 -1,140 Descending Boston Center
09:23PM 43.1819 -74.5158 36° Northeast 466 536 36,300 -1,080 Descending Boston Center
09:24PM 43.2836 -74.4108 37° Northeast 466 536 35,400 -1,680 Descending Boston Center
09:25PM 43.3856 -74.3028 38° Northeast 466 536 33,000 -2,880 Descending Boston Center
09:26PM 43.4872 -74.2000 36° Northeast 461 531 29,800 -3,180 Descending Boston Center
09:27PM 43.5636 -74.1192 37° Northeast 456 525 26,700 -2,880 Descending Boston Center
09:28PM 43.6756 -74.0044 37° Northeast 436 502 23,900 -2,880 Descending Boston Center
09:29PM 43.7581 -73.9147 38° Northeast 400 460 21,100 -3,060 Descending Boston Center
09:30PM 43.8403 -73.8303 37° Northeast 382 440 17,900 -2,700 Descending Boston Center
09:31PM 43.9183 -73.7458 38° Northeast 365 420 15,700 -2,220 Descending Boston Center
09:32PM 43.9900 -73.6722 36° Northeast 359 413 13,500 -2,520 Descending Boston Center
09:33PM 44.0803 -73.6192 23° Northeast 320 368 10,700 -1,860 Descending Boston Center
09:34PM 44.1556 -73.5858 18° North 294 338 9,800 -1,320 Descending Boston Center
09:35PM 44.2269 -73.5497 20° North 272 313 8,100 -1,560 Descending Boston Center
09:36PM 44.2897 -73.5189 19° North 252 290 6,700 -1,440 Descending Boston Center
09:37PM 44.3525 -73.4911 18° North 236 272 5,300 -1,620 Descending Boston Center
09:38PM 44.4069 -73.4600 22° Northeast 221 254 3,500 -960 Descending Boston Center
09:39PM 44.4492 -73.3939 48° Northeast 215 247 3,400 -480 Descending Boston Center
09:40PM 44.4869 -73.3333 49° Northeast 215 247 2,600 -600 Descending Boston Center
09:41PM 44.5144 -73.2786 55° Northeast 193 222 2,200 -660 Descending Boston Center
09:42PM 44.5128 -73.2289 93° East 140 161 1,300 -720 Descending Boston Center
09:43PM 44.4922 -73.1881 125° Southeast 129 148 800 -360 Descending Boston Center
09:45PM 44.4694 -73.1528 132° Southeast 82 94 300 -300 Descending Boston Center